Time,TemperatureF,DewpointF,PressureIn,WindDirection,WindDirectionDegrees,WindSpeedMPH,WindSpeedGustMPH,Humidity,HourlyPrecipIn,Conditions,Clouds,dailyrainin,SolarRadiationWatts/m^2,SoftwareType,DateUTC
2013-05-18 00:22:00,67.0,66.0,-100.00,SSE,150,10.0,13.0,95,0.00,,,0.00,0.000000,,2013-05-18 05:22:00,
2013-05-18 00:32:00,67.0,66.0,-100.00,SSE,150,10.0,13.0,95,0.00,,,0.00,0.000000,,2013-05-18 05:32:00,
2013-05-18 00:42:00,67.0,66.0,-100.00,SSE,150,10.0,13.0,95,0.00,,,0.00,0.000000,,2013-05-18 05:42:00,
2013-05-18 00:52:00,67.0,66.0,-100.00,SSE,150,10.0,13.0,95,0.00,,,0.00,0.000000,,2013-05-18 05:52:00,
2013-05-18 01:22:00,66.0,65.0,-100.00,SSE,149,12.0,16.0,96,0.00,,,0.00,0.000000,,2013-05-18 06:22:00,
2013-05-18 01:32:00,66.0,65.0,-100.00,SSE,149,12.0,16.0,96,0.00,,,0.00,0.000000,,2013-05-18 06:32:00,
2013-05-18 01:42:00,66.0,65.0,-100.00,SSE,149,12.0,16.0,96,0.00,,,0.00,0.000000,,2013-05-18 06:42:00,
2013-05-18 01:52:00,66.0,65.0,-100.00,SSE,149,12.0,16.0,96,0.00,,,0.00,0.000000,,2013-05-18 06:52:00,
2013-05-18 02:21:00,64.0,64.0,-100.00,SE,145,8.0,16.0,99,0.00,,,0.00,0.000000,,2013-05-18 07:21:00,
2013-05-18 02:32:00,64.0,64.0,-100.00,SE,145,8.0,16.0,99,0.00,,,0.00,0.000000,,2013-05-18 07:32:00,
2013-05-18 02:42:00,64.0,64.0,-100.00,SE,145,8.0,16.0,99,0.00,,,0.00,0.000000,,2013-05-18 07:42:00,
2013-05-18 02:52:00,64.0,64.0,-100.00,SE,145,8.0,16.0,99,0.00,,,0.00,0.000000,,2013-05-18 07:52:00,
2013-05-18 03:21:00,62.0,62.0,-100.00,SE,142,8.0,11.0,100,0.00,,,0.00,0.000000,,2013-05-18 08:21:00,
2013-05-18 03:32:00,62.0,62.0,-100.00,SE,142,8.0,11.0,100,0.00,,,0.00,0.000000,,2013-05-18 08:32:00,
2013-05-18 03:42:00,62.0,62.0,-100.00,SE,142,8.0,11.0,100,0.00,,,0.00,0.000000,,2013-05-18 08:42:00,
2013-05-18 03:52:00,62.0,62.0,-100.00,SE,142,8.0,11.0,100,0.00,,,0.00,0.000000,,2013-05-18 08:52:00,
2013-05-18 04:22:00,60.0,60.0,-100.00,SE,143,6.0,9.0,100,0.00,,,0.00,0.000000,,2013-05-18 09:22:00,
2013-05-18 04:33:00,60.0,60.0,-100.00,SE,143,6.0,9.0,100,0.00,,,0.00,0.000000,,2013-05-18 09:33:00,
2013-05-18 04:43:00,60.0,60.0,-100.00,SE,143,6.0,9.0,100,0.00,,,0.00,0.000000,,2013-05-18 09:43:00,
2013-05-18 04:53:00,60.0,60.0,-100.00,SE,143,6.0,9.0,100,0.00,,,0.00,0.000000,,2013-05-18 09:53:00,
2013-05-18 05:23:00,58.0,58.0,-100.00,SE,129,6.0,7.0,100,0.00,,,0.00,0.000000,,2013-05-18 10:23:00,
2013-05-18 05:33:00,58.0,58.0,-100.00,SE,129,6.0,7.0,100,0.00,,,0.00,0.000000,,2013-05-18 10:33:00,
2013-05-18 05:42:00,58.0,58.0,-100.00,SE,129,6.0,7.0,100,0.00,,,0.00,0.000000,,2013-05-18 10:42:00,
2013-05-18 05:52:00,58.0,58.0,-100.00,SE,129,6.0,7.0,100,0.00,,,0.00,0.000000,,2013-05-18 10:52:00,
2013-05-18 06:22:00,60.0,60.0,-100.00,SE,138,7.0,9.0,100,0.00,,,0.00,0.000000,,2013-05-18 11:22:00,
2013-05-18 06:33:00,60.0,60.0,-100.00,SE,138,7.0,9.0,100,0.00,,,0.00,0.000000,,2013-05-18 11:33:00,
2013-05-18 06:42:00,60.0,60.0,-100.00,SE,138,7.0,9.0,100,0.00,,,0.00,0.000000,,2013-05-18 11:42:00,
2013-05-18 06:52:00,60.0,60.0,-100.00,SE,138,7.0,9.0,100,0.00,,,0.00,0.000000,,2013-05-18 11:52:00,
2013-05-18 07:23:00,62.0,62.0,-100.00,ESE,105,9.0,11.0,100,0.00,,,0.00,0.000000,,2013-05-18 12:23:00,
2013-05-18 07:33:00,62.0,62.0,-100.00,ESE,105,9.0,11.0,100,0.00,,,0.00,0.000000,,2013-05-18 12:33:00,
2013-05-18 07:42:00,62.0,62.0,-100.00,ESE,105,9.0,11.0,100,0.00,,,0.00,0.000000,,2013-05-18 12:42:00,
2013-05-18 07:52:00,62.0,62.0,-100.00,ESE,105,9.0,11.0,100,0.00,,,0.00,0.000000,,2013-05-18 12:52:00,
2013-05-18 08:21:00,63.0,63.0,-100.00,ESE,118,10.0,16.0,100,0.00,,,0.00,0.000000,,2013-05-18 13:21:00,
2013-05-18 08:33:00,63.0,63.0,-100.00,ESE,118,10.0,16.0,100,0.00,,,0.00,0.000000,,2013-05-18 13:33:00,
2013-05-18 08:43:00,63.0,63.0,-100.00,ESE,118,10.0,16.0,100,0.00,,,0.00,0.000000,,2013-05-18 13:43:00,
2013-05-18 08:52:00,63.0,63.0,-100.00,ESE,118,10.0,16.0,100,0.00,,,0.00,0.000000,,2013-05-18 13:52:00,
2013-05-18 09:22:00,64.0,64.0,-100.00,ESE,122,9.0,17.0,100,0.00,,,0.00,0.000000,,2013-05-18 14:22:00,
2013-05-18 09:33:00,64.0,64.0,-100.00,ESE,122,9.0,17.0,100,0.00,,,0.00,0.000000,,2013-05-18 14:33:00,
2013-05-18 09:42:00,64.0,64.0,-100.00,ESE,122,9.0,17.0,100,0.00,,,0.00,0.000000,,2013-05-18 14:42:00,
2013-05-18 09:54:00,64.0,64.0,-100.00,ESE,122,9.0,17.0,100,0.00,,,0.00,0.000000,,2013-05-18 14:54:00,
2013-05-18 10:23:00,67.0,67.0,-100.00,SE,130,10.0,16.0,100,0.00,,,0.00,0.000000,,2013-05-18 15:23:00,
2013-05-18 10:33:00,67.0,67.0,-100.00,SE,130,10.0,16.0,100,0.00,,,0.00,0.000000,,2013-05-18 15:33:00,
2013-05-18 10:43:00,67.0,67.0,-100.00,SE,130,10.0,16.0,100,0.00,,,0.00,0.000000,,2013-05-18 15:43:00,
2013-05-18 10:53:00,67.0,67.0,-100.00,SE,130,10.0,16.0,100,0.00,,,0.00,0.000000,,2013-05-18 15:53:00,
2013-05-18 11:22:00,69.0,69.0,-100.00,SE,131,11.0,15.0,100,0.00,,,0.00,0.000000,,2013-05-18 16:22:00,
2013-05-18 11:33:00,69.0,69.0,-100.00,SE,131,11.0,15.0,100,0.00,,,0.00,0.000000,,2013-05-18 16:33:00,
2013-05-18 11:42:00,69.0,69.0,-100.00,SE,131,11.0,15.0,100,0.00,,,0.00,0.000000,,2013-05-18 16:42:00,
2013-05-18 11:52:00,69.0,69.0,-100.00,SE,131,11.0,15.0,100,0.00,,,0.00,0.000000,,2013-05-18 16:52:00,
2013-05-18 12:22:00,73.0,73.0,-100.00,SE,140,14.0,18.0,99,0.00,,,0.00,0.000000,,2013-05-18 17:22:00,
2013-05-18 12:32:00,73.0,73.0,-100.00,SE,140,14.0,18.0,99,0.00,,,0.00,0.000000,,2013-05-18 17:32:00,
2013-05-18 12:42:00,73.0,73.0,-100.00,SE,140,14.0,18.0,99,0.00,,,0.00,0.000000,,2013-05-18 17:42:00,
2013-05-18 12:52:00,73.0,73.0,-100.00,SE,140,14.0,18.0,99,0.00,,,0.00,0.000000,,2013-05-18 17:52:00,
2013-05-18 13:21:00,74.0,72.0,-100.00,SE,134,16.0,22.0,93,0.00,,,0.00,0.000000,,2013-05-18 18:21:00,
2013-05-18 13:32:00,74.0,72.0,-100.00,SE,134,16.0,22.0,93,0.00,,,0.00,0.000000,,2013-05-18 18:32:00,
2013-05-18 13:42:00,74.0,72.0,-100.00,SE,134,16.0,22.0,93,0.00,,,0.00,0.000000,,2013-05-18 18:42:00,
2013-05-18 13:52:00,74.0,72.0,-100.00,SE,134,16.0,22.0,93,0.00,,,0.00,0.000000,,2013-05-18 18:52:00,
2013-05-18 14:22:00,72.0,72.0,-100.00,SE,133,13.0,21.0,100,0.00,,,0.00,0.000000,,2013-05-18 19:22:00,
2013-05-18 14:32:00,72.0,72.0,-100.00,SE,133,13.0,21.0,100,0.00,,,0.00,0.000000,,2013-05-18 19:32:00,
2013-05-18 14:42:00,72.0,72.0,-100.00,SE,133,13.0,21.0,100,0.00,,,0.00,0.000000,,2013-05-18 19:42:00,
2013-05-18 14:52:00,72.0,72.0,-100.00,SE,133,13.0,21.0,100,0.00,,,0.00,0.000000,,2013-05-18 19:52:00,
2013-05-18 15:22:00,71.0,71.0,-100.00,SSE,152,12.0,20.0,100,0.00,,,0.00,0.000000,,2013-05-18 20:22:00,
2013-05-18 15:32:00,71.0,71.0,-100.00,SSE,152,12.0,20.0,100,0.00,,,0.00,0.000000,,2013-05-18 20:32:00,
2013-05-18 15:42:00,71.0,71.0,-100.00,SSE,152,12.0,20.0,100,0.00,,,0.00,0.000000,,2013-05-18 20:42:00,
2013-05-18 15:52:00,71.0,71.0,-100.00,SSE,152,12.0,20.0,100,0.00,,,0.00,0.000000,,2013-05-18 20:52:00,
2013-05-18 16:21:00,74.0,72.0,-100.00,East,88,10.0,19.0,94,0.00,,,0.00,0.000000,,2013-05-18 21:21:00,
2013-05-18 16:32:00,74.0,72.0,-100.00,East,88,10.0,19.0,94,0.00,,,0.00,0.000000,,2013-05-18 21:32:00,
2013-05-18 16:43:00,74.0,72.0,-100.00,East,88,10.0,19.0,94,0.00,,,0.00,0.000000,,2013-05-18 21:43:00,
2013-05-18 16:53:00,74.0,72.0,-100.00,East,88,10.0,19.0,94,0.00,,,0.00,0.000000,,2013-05-18 21:53:00,
2013-05-18 17:23:00,78.0,76.0,-100.00,SE,140,12.0,19.0,93,0.00,,,0.00,0.000000,,2013-05-18 22:23:00,
2013-05-18 17:33:00,78.0,76.0,-100.00,SE,140,12.0,19.0,93,0.00,,,0.00,0.000000,,2013-05-18 22:33:00,
2013-05-18 17:42:00,78.0,76.0,-100.00,SE,140,12.0,19.0,93,0.00,,,0.00,0.000000,,2013-05-18 22:42:00,
2013-05-18 17:52:00,78.0,76.0,-100.00,SE,140,12.0,19.0,93,0.00,,,0.00,0.000000,,2013-05-18 22:52:00,
2013-05-18 18:22:00,81.0,72.0,-100.00,SE,125,14.0,21.0,75,0.00,,,0.00,0.000000,,2013-05-18 23:22:00,
2013-05-18 18:32:00,81.0,72.0,-100.00,SE,125,14.0,21.0,75,0.00,,,0.00,0.000000,,2013-05-18 23:32:00,
2013-05-18 18:41:00,81.0,72.0,-100.00,SE,125,14.0,21.0,75,0.00,,,0.00,0.000000,,2013-05-18 23:41:00,
2013-05-18 18:52:00,81.0,72.0,-100.00,SE,125,14.0,21.0,75,0.00,,,0.00,0.000000,,2013-05-18 23:52:00,
2013-05-18 19:21:00,78.0,72.0,-100.00,SE,127,15.0,20.0,82,0.00,,,0.00,0.000000,,2013-05-19 00:21:00,
2013-05-18 19:32:00,78.0,72.0,-100.00,SE,127,15.0,20.0,82,0.00,,,0.00,0.000000,,2013-05-19 00:32:00,
2013-05-18 19:41:00,78.0,72.0,-100.00,SE,127,15.0,20.0,82,0.00,,,0.00,0.000000,,2013-05-19 00:41:00,
2013-05-18 19:51:00,78.0,72.0,-100.00,SE,127,15.0,20.0,82,0.00,,,0.00,0.000000,,2013-05-19 00:51:00,
2013-05-18 20:21:00,76.0,72.0,-100.00,SE,146,9.0,20.0,87,0.00,,,0.00,0.000000,,2013-05-19 01:21:00,
2013-05-18 20:32:00,76.0,72.0,-100.00,SE,146,9.0,20.0,87,0.00,,,0.00,0.000000,,2013-05-19 01:32:00,
2013-05-18 20:42:00,76.0,72.0,-100.00,SE,146,9.0,20.0,87,0.00,,,0.00,0.000000,,2013-05-19 01:42:00,
2013-05-18 20:52:00,76.0,72.0,-100.00,SE,146,9.0,20.0,87,0.00,,,0.00,0.000000,,2013-05-19 01:52:00,
2013-05-18 21:22:00,61.0,59.0,-100.00,SSW,213,11.0,39.0,94,0.40,,,0.40,0.000000,,2013-05-19 02:22:00,
2013-05-18 22:22:00,63.0,62.0,-100.00,SE,128,10.0,18.0,98,-99.99,,,0.58,0.000000,,2013-05-19 03:22:00,
2013-05-18 22:33:00,63.0,62.0,-100.00,SE,128,10.0,18.0,98,-99.99,,,0.58,0.000000,,2013-05-19 03:33:00,
2013-05-18 22:42:00,63.0,62.0,-100.00,SE,128,10.0,18.0,98,-99.99,,,0.58,0.000000,,2013-05-19 03:42:00,
2013-05-18 22:53:00,63.0,62.0,-100.00,SE,128,10.0,18.0,98,-99.99,,,0.58,0.000000,,2013-05-19 03:53:00,
2013-05-18 23:23:00,65.0,62.0,-100.00,ESE,105,18.0,26.0,89,0.03,,,0.61,0.000000,,2013-05-19 04:23:00,
2013-05-18 23:33:00,65.0,62.0,-100.00,ESE,105,18.0,26.0,89,0.03,,,0.61,0.000000,,2013-05-19 04:33:00,
2013-05-18 23:42:00,65.0,62.0,-100.00,ESE,105,18.0,26.0,89,0.03,,,0.61,0.000000,,2013-05-19 04:42:00,
2013-05-18 23:52:00,65.0,62.0,-100.00,ESE,105,18.0,26.0,89,0.03,,,0.61,0.000000,,2013-05-19 04:52:00,